Deepwater, New Jersey
Current Conditions -  °F | °C
As of 4:51 PM on Monday 20 Oct 2014 (Local Time) from KILG Reporting Station
Clear Clear  
Wind Chill: 62°   Ceiling: Unl
Heat Index: 62°   Visibility: 10mi
Dew Point: 41°   Wind: 7mph
Humidity: 46%   Direction: 220°SW
Pressure: 29.98"   Gusts: NA
Location:  39.68°N, 75.49°W
Report Text: KILG 202051Z 22006KT 10SM CLR 17/05 A2998 RMK AO2 SLP150 T01670050 56018
Loading
Personal Weather Stations






























Interactive Weather Map New forecast layout! Learn more

10-Day Weather Forecast

Advertisements
Track Severe Weather on mobile